sensor_id;sensor_type;location;lat;lon;timestamp;temperature;humidity
40960;DHT22;27842;52.272;8.052;2023-06-01T00:01:37;15.80;79.90
40960;DHT22;27842;52.272;8.052;2023-06-01T00:04:03;15.70;80.00
40960;DHT22;27842;52.272;8.052;2023-06-01T00:06:28;15.70;80.10
40960;DHT22;27842;52.272;8.052;2023-06-01T00:08:56;15.70;80.20
40960;DHT22;27842;52.272;8.052;2023-06-01T00:11:21;15.70;80.20
40960;DHT22;27842;52.272;8.052;2023-06-01T00:13:47;15.70;80.70
40960;DHT22;27842;52.272;8.052;2023-06-01T00:16:13;15.70;79.90
40960;DHT22;27842;52.272;8.052;2023-06-01T00:18:39;15.50;81.10
40960;DHT22;27842;52.272;8.052;2023-06-01T00:21:05;15.60;79.80
40960;DHT22;27842;52.272;8.052;2023-06-01T00:23:30;15.50;80.30
40960;DHT22;27842;52.272;8.052;2023-06-01T00:25:57;15.50;80.20
40960;DHT22;27842;52.272;8.052;2023-06-01T00:28:22;15.50;80.20
40960;DHT22;27842;52.272;8.052;2023-06-01T00:30:48;15.50;82.10
40960;DHT22;27842;52.272;8.052;2023-06-01T00:33:13;15.50;80.10
40960;DHT22;27842;52.272;8.052;2023-06-01T00:35:39;15.50;80.60
40960;DHT22;27842;52.272;8.052;2023-06-01T00:38:04;15.60;80.10
40960;DHT22;27842;52.272;8.052;2023-06-01T00:40:33;15.60;79.80
40960;DHT22;27842;52.272;8.052;2023-06-01T00:42:58;15.60;79.50
40960;DHT22;27842;52.272;8.052;2023-06-01T00:45:30;15.70;79.80
40960;DHT22;27842;52.272;8.052;2023-06-01T00:47:55;15.70;79.80
40960;DHT22;27842;52.272;8.052;2023-06-01T00:50:21;15.60;79.60
40960;DHT22;27842;52.272;8.052;2023-06-01T00:52:48;15.60;79.60
40960;DHT22;27842;52.272;8.052;2023-06-01T00:55:14;15.60;79.60
40960;DHT22;27842;52.272;8.052;2023-06-01T00:57:39;15.60;79.80
40960;DHT22;27842;52.272;8.052;2023-06-01T01:00:07;15.60;79.80
40960;DHT22;27842;52.272;8.052;2023-06-01T01:02:38;15.60;79.90
40960;DHT22;27842;52.272;8.052;2023-06-01T01:05:04;15.60;79.60
40960;DHT22;27842;52.272;8.052;2023-06-01T01:12:45;15.40;79.90
40960;DHT22;27842;52.272;8.052;2023-06-01T01:15:15;15.40;79.90
40960;DHT22;27842;52.272;8.052;2023-06-01T01:17:44;15.40;80.20
40960;DHT22;27842;52.272;8.052;2023-06-01T01:20:24;15.40;80.50
40960;DHT22;27842;52.272;8.052;2023-06-01T01:23:02;15.40;79.80
40960;DHT22;27842;52.272;8.052;2023-06-01T01:25:35;15.40;80.00
40960;DHT22;27842;52.272;8.052;2023-06-01T01:30:49;15.30;80.10
40960;DHT22;27842;52.272;8.052;2023-06-01T01:33:15;15.40;80.40
40960;DHT22;27842;52.272;8.052;2023-06-01T01:35:42;15.40;80.20
40960;DHT22;27842;52.272;8.052;2023-06-01T01:38:08;15.30;80.00
40960;DHT22;27842;52.272;8.052;2023-06-01T01:40:33;15.30;80.10
40960;DHT22;27842;52.272;8.052;2023-06-01T01:42:59;15.40;80.20
40960;DHT22;27842;52.272;8.052;2023-06-01T01:45:25;15.40;79.90
40960;DHT22;27842;52.272;8.052;2023-06-01T01:50:17;15.20;80.30
40960;DHT22;27842;52.272;8.052;2023-06-01T01:52:43;15.20;80.90
40960;DHT22;27842;52.272;8.052;2023-06-01T01:55:10;15.10;80.50
40960;DHT22;27842;52.272;8.052;2023-06-01T01:57:36;15.10;80.60
40960;DHT22;27842;52.272;8.052;2023-06-01T02:00:03;15.20;80.30
40960;DHT22;27842;52.272;8.052;2023-06-01T02:02:30;15.10;80.50
40960;DHT22;27842;52.272;8.052;2023-06-01T02:04:55;15.10;81.20
40960;DHT22;27842;52.272;8.052;2023-06-01T02:07:21;15.10;80.60
40960;DHT22;27842;52.272;8.052;2023-06-01T02:09:46;15.10;80.60
40960;DHT22;27842;52.272;8.052;2023-06-01T02:12:12;15.00;81.70
40960;DHT22;27842;52.272;8.052;2023-06-01T02:14:37;14.90;80.90
40960;DHT22;27842;52.272;8.052;2023-06-01T02:17:03;15.00;80.90
40960;DHT22;27842;52.272;8.052;2023-06-01T02:19:28;15.00;81.00
40960;DHT22;27842;52.272;8.052;2023-06-01T02:21:54;15.00;81.70
40960;DHT22;27842;52.272;8.052;2023-06-01T02:24:20;15.00;80.80
40960;DHT22;27842;52.272;8.052;2023-06-01T02:26:45;15.00;80.80
40960;DHT22;27842;52.272;8.052;2023-06-01T02:29:12;15.00;81.40
40960;DHT22;27842;52.272;8.052;2023-06-01T02:31:37;15.00;80.90
40960;DHT22;27842;52.272;8.052;2023-06-01T02:34:03;15.00;80.80
40960;DHT22;27842;52.272;8.052;2023-06-01T02:36:28;15.00;81.00
40960;DHT22;27842;52.272;8.052;2023-06-01T02:38:55;15.00;81.00
40960;DHT22;27842;52.272;8.052;2023-06-01T02:41:20;15.00;80.70
40960;DHT22;27842;52.272;8.052;2023-06-01T02:43:46;15.10;80.90
40960;DHT22;27842;52.272;8.052;2023-06-01T02:46:12;15.00;80.70
40960;DHT22;27842;52.272;8.052;2023-06-01T02:48:38;15.00;81.10
40960;DHT22;27842;52.272;8.052;2023-06-01T02:51:03;15.00;80.80
40960;DHT22;27842;52.272;8.052;2023-06-01T02:53:29;14.90;81.20
40960;DHT22;27842;52.272;8.052;2023-06-01T02:55:54;14.80;81.70
40960;DHT22;27842;52.272;8.052;2023-06-01T02:58:20;14.70;81.90
40960;DHT22;27842;52.272;8.052;2023-06-01T03:00:45;14.60;81.90
40960;DHT22;27842;52.272;8.052;2023-06-01T03:03:12;14.60;81.60
40960;DHT22;27842;52.272;8.052;2023-06-01T03:05:37;14.50;84.00
40960;DHT22;27842;52.272;8.052;2023-06-01T03:08:03;14.50;81.90
40960;DHT22;27842;52.272;8.052;2023-06-01T03:10:29;14.60;81.90
40960;DHT22;27842;52.272;8.052;2023-06-01T03:12:54;14.60;81.40
40960;DHT22;27842;52.272;8.052;2023-06-01T03:15:20;14.60;81.60
40960;DHT22;27842;52.272;8.052;2023-06-01T03:17:45;14.60;81.60
40960;DHT22;27842;52.272;8.052;2023-06-01T03:20:11;14.60;81.60
40960;DHT22;27842;52.272;8.052;2023-06-01T03:22:45;14.60;81.40
40960;DHT22;27842;52.272;8.052;2023-06-01T03:25:11;14.60;82.60
40960;DHT22;27842;52.272;8.052;2023-06-01T03:27:38;14.70;81.20
40960;DHT22;27842;52.272;8.052;2023-06-01T03:30:03;14.80;81.00
40960;DHT22;27842;52.272;8.052;2023-06-01T03:32:29;14.80;81.50
40960;DHT22;27842;52.272;8.052;2023-06-01T03:34:55;14.80;80.90
40960;DHT22;27842;52.272;8.052;2023-06-01T03:37:20;14.80;81.30
40960;DHT22;27842;52.272;8.052;2023-06-01T03:39:46;14.80;81.10
40960;DHT22;27842;52.272;8.052;2023-06-01T03:42:12;14.80;81.00
40960;DHT22;27842;52.272;8.052;2023-06-01T03:44:39;14.70;81.10
40960;DHT22;27842;52.272;8.052;2023-06-01T03:47:04;14.70;81.00
40960;DHT22;27842;52.272;8.052;2023-06-01T03:49:30;14.70;81.00
40960;DHT22;27842;52.272;8.052;2023-06-01T03:51:55;14.70;81.00
40960;DHT22;27842;52.272;8.052;2023-06-01T03:54:21;14.70;81.30
40960;DHT22;27842;52.272;8.052;2023-06-01T03:56:46;14.80;80.90
40960;DHT22;27842;52.272;8.052;2023-06-01T03:59:12;14.80;80.70
40960;DHT22;27842;52.272;8.052;2023-06-01T04:01:37;14.80;80.70
40960;DHT22;27842;52.272;8.052;2023-06-01T04:04:05;14.80;81.00
40960;DHT22;27842;52.272;8.052;2023-06-01T04:06:34;14.70;81.10
40960;DHT22;27842;52.272;8.052;2023-06-01T04:09:03;14.70;81.60
40960;DHT22;27842;52.272;8.052;2023-06-01T04:11:32;14.60;81.40
40960;DHT22;27842;52.272;8.052;2023-06-01T04:13:58;14.50;82.80
40960;DHT22;27842;52.272;8.052;2023-06-01T04:16:24;14.50;82.50
40960;DHT22;27842;52.272;8.052;2023-06-01T04:18:50;14.50;81.50
40960;DHT22;27842;52.272;8.052;2023-06-01T04:21:15;14.50;81.40
40960;DHT22;27842;52.272;8.052;2023-06-01T04:23:41;14.60;81.40
40960;DHT22;27842;52.272;8.052;2023-06-01T04:26:07;14.50;81.60
40960;DHT22;27842;52.272;8.052;2023-06-01T04:28:33;14.50;81.40
40960;DHT22;27842;52.272;8.052;2023-06-01T04:30:58;14.50;81.40
40960;DHT22;27842;52.272;8.052;2023-06-01T04:33:24;14.40;81.80
40960;DHT22;27842;52.272;8.052;2023-06-01T04:35:50;14.40;81.80
40960;DHT22;27842;52.272;8.052;2023-06-01T04:38:18;14.40;81.80
40960;DHT22;27842;52.272;8.052;2023-06-01T04:40:44;14.30;82.80
40960;DHT22;27842;52.272;8.052;2023-06-01T04:43:12;14.30;82.00
40960;DHT22;27842;52.272;8.052;2023-06-01T04:45:38;14.30;82.60
40960;DHT22;27842;52.272;8.052;2023-06-01T04:48:04;14.20;82.30
40960;DHT22;27842;52.272;8.052;2023-06-01T04:50:34;14.30;82.20
40960;DHT22;27842;52.272;8.052;2023-06-01T04:53:00;14.20;83.90
40960;DHT22;27842;52.272;8.052;2023-06-01T04:55:26;14.20;82.10
40960;DHT22;27842;52.272;8.052;2023-06-01T04:57:52;14.30;82.00
40960;DHT22;27842;52.272;8.052;2023-06-01T05:00:17;14.30;82.10
40960;DHT22;27842;52.272;8.052;2023-06-01T05:02:44;14.30;82.00
40960;DHT22;27842;52.272;8.052;2023-06-01T05:05:10;14.30;82.10
40960;DHT22;27842;52.272;8.052;2023-06-01T05:07:36;14.40;82.40
40960;DHT22;27842;52.272;8.052;2023-06-01T05:10:02;14.30;81.90
40960;DHT22;27842;52.272;8.052;2023-06-01T05:12:31;14.40;81.90
40960;DHT22;27842;52.272;8.052;2023-06-01T05:15:04;14.40;81.90
40960;DHT22;27842;52.272;8.052;2023-06-01T05:17:29;14.30;82.10
40960;DHT22;27842;52.272;8.052;2023-06-01T05:19:55;14.30;81.90
40960;DHT22;27842;52.272;8.052;2023-06-01T05:22:22;14.20;82.30
40960;DHT22;27842;52.272;8.052;2023-06-01T05:24:48;14.20;82.30
40960;DHT22;27842;52.272;8.052;2023-06-01T05:27:13;14.10;83.40
40960;DHT22;27842;52.272;8.052;2023-06-01T05:29:39;14.20;82.40
40960;DHT22;27842;52.272;8.052;2023-06-01T05:32:05;14.20;82.40
40960;DHT22;27842;52.272;8.052;2023-06-01T05:34:30;14.10;83.50
40960;DHT22;27842;52.272;8.052;2023-06-01T05:36:56;14.10;82.80
40960;DHT22;27842;52.272;8.052;2023-06-01T05:39:21;14.10;83.40
40960;DHT22;27842;52.272;8.052;2023-06-01T05:41:52;14.10;82.90
40960;DHT22;27842;52.272;8.052;2023-06-01T05:44:18;14.10;83.20
40960;DHT22;27842;52.272;8.052;2023-06-01T05:46:44;14.10;83.90
40960;DHT22;27842;52.272;8.052;2023-06-01T05:49:09;14.00;85.10
40960;DHT22;27842;52.272;8.052;2023-06-01T05:51:35;14.00;85.50
40960;DHT22;27842;52.272;8.052;2023-06-01T05:54:03;14.00;83.20
40960;DHT22;27842;52.272;8.052;2023-06-01T05:56:29;14.00;83.10
40960;DHT22;27842;52.272;8.052;2023-06-01T05:58:55;14.00;83.20
40960;DHT22;27842;52.272;8.052;2023-06-01T06:01:20;14.00;84.00
40960;DHT22;27842;52.272;8.052;2023-06-01T06:03:47;14.00;83.30
40960;DHT22;27842;52.272;8.052;2023-06-01T06:06:13;14.00;83.40
40960;DHT22;27842;52.272;8.052;2023-06-01T06:08:38;14.00;83.30
40960;DHT22;27842;52.272;8.052;2023-06-01T06:11:04;14.10;83.40
40960;DHT22;27842;52.272;8.052;2023-06-01T06:13:29;14.00;83.30
40960;DHT22;27842;52.272;8.052;2023-06-01T06:16:00;14.10;83.10
40960;DHT22;27842;52.272;8.052;2023-06-01T06:18:25;14.20;83.20
40960;DHT22;27842;52.272;8.052;2023-06-01T06:20:51;14.20;83.40
40960;DHT22;27842;52.272;8.052;2023-06-01T06:23:16;14.20;83.10
40960;DHT22;27842;52.272;8.052;2023-06-01T06:25:42;14.20;83.10
40960;DHT22;27842;52.272;8.052;2023-06-01T06:28:08;14.20;82.90
40960;DHT22;27842;52.272;8.052;2023-06-01T06:30:33;14.30;82.80
40960;DHT22;27842;52.272;8.052;2023-06-01T06:32:59;14.40;82.90
40960;DHT22;27842;52.272;8.052;2023-06-01T06:35:25;14.30;83.00
40960;DHT22;27842;52.272;8.052;2023-06-01T06:37:50;14.40;83.00
40960;DHT22;27842;52.272;8.052;2023-06-01T06:40:16;14.30;84.40
40960;DHT22;27842;52.272;8.052;2023-06-01T06:42:43;14.20;83.10
40960;DHT22;27842;52.272;8.052;2023-06-01T06:45:12;14.20;83.40
40960;DHT22;27842;52.272;8.052;2023-06-01T06:47:42;14.20;83.20
40960;DHT22;27842;52.272;8.052;2023-06-01T06:50:10;14.20;83.30
40960;DHT22;27842;52.272;8.052;2023-06-01T06:52:36;14.20;83.60
40960;DHT22;27842;52.272;8.052;2023-06-01T06:55:02;14.20;83.70
40960;DHT22;27842;52.272;8.052;2023-06-01T06:57:28;14.20;83.50
40960;DHT22;27842;52.272;8.052;2023-06-01T06:59:53;14.20;83.40
40960;DHT22;27842;52.272;8.052;2023-06-01T07:02:19;14.20;83.30
40960;DHT22;27842;52.272;8.052;2023-06-01T07:04:44;14.20;83.40
40960;DHT22;27842;52.272;8.052;2023-06-01T07:07:10;14.20;84.00
40960;DHT22;27842;52.272;8.052;2023-06-01T07:09:35;14.20;83.80
40960;DHT22;27842;52.272;8.052;2023-06-01T07:12:01;14.20;84.20
40960;DHT22;27842;52.272;8.052;2023-06-01T07:14:26;14.20;83.80
40960;DHT22;27842;52.272;8.052;2023-06-01T07:16:52;14.20;83.70
40960;DHT22;27842;52.272;8.052;2023-06-01T07:19:17;14.20;83.60
40960;DHT22;27842;52.272;8.052;2023-06-01T07:21:43;14.30;83.70
40960;DHT22;27842;52.272;8.052;2023-06-01T07:24:08;14.20;83.70
40960;DHT22;27842;52.272;8.052;2023-06-01T07:26:34;14.30;83.60
40960;DHT22;27842;52.272;8.052;2023-06-01T07:29:00;14.30;83.80
40960;DHT22;27842;52.272;8.052;2023-06-01T07:31:25;14.30;83.60
40960;DHT22;27842;52.272;8.052;2023-06-01T07:33:53;14.30;83.70
40960;DHT22;27842;52.272;8.052;2023-06-01T07:36:18;14.30;83.90
40960;DHT22;27842;52.272;8.052;2023-06-01T07:38:45;14.30;83.70
40960;DHT22;27842;52.272;8.052;2023-06-01T07:41:11;14.30;84.10
40960;DHT22;27842;52.272;8.052;2023-06-01T07:43:37;14.30;85.20
40960;DHT22;27842;52.272;8.052;2023-06-01T07:46:02;14.30;84.10
40960;DHT22;27842;52.272;8.052;2023-06-01T07:48:28;14.30;84.40
40960;DHT22;27842;52.272;8.052;2023-06-01T07:50:53;14.30;83.90
40960;DHT22;27842;52.272;8.052;2023-06-01T07:53:20;14.30;84.10
40960;DHT22;27842;52.272;8.052;2023-06-01T07:55:48;14.30;84.90
40960;DHT22;27842;52.272;8.052;2023-06-01T07:58:15;14.30;83.90
40960;DHT22;27842;52.272;8.052;2023-06-01T08:00:40;14.30;84.30
40960;DHT22;27842;52.272;8.052;2023-06-01T08:03:06;14.30;84.30
40960;DHT22;27842;52.272;8.052;2023-06-01T08:05:34;14.30;84.10
40960;DHT22;27842;52.272;8.052;2023-06-01T08:07:59;14.40;84.40
40960;DHT22;27842;52.272;8.052;2023-06-01T08:10:25;14.30;84.30
40960;DHT22;27842;52.272;8.052;2023-06-01T08:12:51;14.30;84.40
40960;DHT22;27842;52.272;8.052;2023-06-01T08:15:24;14.40;84.20
40960;DHT22;27842;52.272;8.052;2023-06-01T08:17:51;14.30;84.70
40960;DHT22;27842;52.272;8.052;2023-06-01T08:20:17;14.30;84.50
40960;DHT22;27842;52.272;8.052;2023-06-01T08:22:46;14.30;84.70
40960;DHT22;27842;52.272;8.052;2023-06-01T08:25:12;14.30;86.80
40960;DHT22;27842;52.272;8.052;2023-06-01T08:27:39;14.30;84.80
40960;DHT22;27842;52.272;8.052;2023-06-01T08:30:06;14.30;84.90
40960;DHT22;27842;52.272;8.052;2023-06-01T08:32:32;14.30;84.80
40960;DHT22;27842;52.272;8.052;2023-06-01T08:34:57;14.30;84.70
40960;DHT22;27842;52.272;8.052;2023-06-01T08:37:23;14.40;84.50
40960;DHT22;27842;52.272;8.052;2023-06-01T08:39:49;14.40;84.80
40960;DHT22;27842;52.272;8.052;2023-06-01T08:42:24;14.40;86.80
40960;DHT22;27842;52.272;8.052;2023-06-01T08:44:53;14.40;84.60
40960;DHT22;27842;52.272;8.052;2023-06-01T08:47:18;14.40;86.50
40960;DHT22;27842;52.272;8.052;2023-06-01T08:49:44;14.40;84.40
40960;DHT22;27842;52.272;8.052;2023-06-01T08:52:13;14.50;84.50
40960;DHT22;27842;52.272;8.052;2023-06-01T08:54:39;14.50;84.40
40960;DHT22;27842;52.272;8.052;2023-06-01T08:57:05;14.50;84.30
40960;DHT22;27842;52.272;8.052;2023-06-01T08:59:33;14.60;86.30
40960;DHT22;27842;52.272;8.052;2023-06-01T09:01:59;14.50;87.10
40960;DHT22;27842;52.272;8.052;2023-06-01T09:04:25;14.50;86.40
40960;DHT22;27842;52.272;8.052;2023-06-01T09:06:51;14.50;84.50
40960;DHT22;27842;52.272;8.052;2023-06-01T09:09:17;14.60;84.80
40960;DHT22;27842;52.272;8.052;2023-06-01T09:11:43;14.50;84.90
40960;DHT22;27842;52.272;8.052;2023-06-01T09:14:18;14.50;84.80
40960;DHT22;27842;52.272;8.052;2023-06-01T09:16:45;14.60;84.70
40960;DHT22;27842;52.272;8.052;2023-06-01T09:19:11;14.70;84.70
40960;DHT22;27842;52.272;8.052;2023-06-01T09:21:36;14.70;84.90
40960;DHT22;27842;52.272;8.052;2023-06-01T09:24:18;14.70;84.50
40960;DHT22;27842;52.272;8.052;2023-06-01T09:26:47;14.70;84.60
40960;DHT22;27842;52.272;8.052;2023-06-01T09:29:12;14.80;84.60
40960;DHT22;27842;52.272;8.052;2023-06-01T09:31:41;14.70;84.50
40960;DHT22;27842;52.272;8.052;2023-06-01T09:34:08;14.80;84.70
40960;DHT22;27842;52.272;8.052;2023-06-01T09:36:34;14.80;85.70
40960;DHT22;27842;52.272;8.052;2023-06-01T09:39:03;14.70;85.40
40960;DHT22;27842;52.272;8.052;2023-06-01T09:41:50;14.70;84.80
40960;DHT22;27842;52.272;8.052;2023-06-01T09:44:26;14.70;85.20
40960;DHT22;27842;52.272;8.052;2023-06-01T09:46:52;14.70;85.70
40960;DHT22;27842;52.272;8.052;2023-06-01T09:49:19;14.70;85.50
40960;DHT22;27842;52.272;8.052;2023-06-01T09:51:49;14.70;85.00
40960;DHT22;27842;52.272;8.052;2023-06-01T09:54:24;14.70;85.00
40960;DHT22;27842;52.272;8.052;2023-06-01T09:56:50;14.80;85.00
40960;DHT22;27842;52.272;8.052;2023-06-01T09:59:15;14.80;85.30
40960;DHT22;27842;52.272;8.052;2023-06-01T10:01:41;14.80;85.60
40960;DHT22;27842;52.272;8.052;2023-06-01T10:04:07;14.80;85.20
40960;DHT22;27842;52.272;8.052;2023-06-01T10:06:35;14.80;85.30
40960;DHT22;27842;52.272;8.052;2023-06-01T10:09:02;14.80;85.10
40960;DHT22;27842;52.272;8.052;2023-06-01T10:11:27;14.80;85.60
40960;DHT22;27842;52.272;8.052;2023-06-01T10:13:54;14.80;85.70
40960;DHT22;27842;52.272;8.052;2023-06-01T10:16:20;14.80;85.50
40960;DHT22;27842;52.272;8.052;2023-06-01T10:18:46;14.80;85.50
40960;DHT22;27842;52.272;8.052;2023-06-01T10:21:13;14.80;85.60
40960;DHT22;27842;52.272;8.052;2023-06-01T10:23:39;14.80;85.50
40960;DHT22;27842;52.272;8.052;2023-06-01T10:26:07;14.80;85.90
40960;DHT22;27842;52.272;8.052;2023-06-01T10:28:35;14.80;86.00
40960;DHT22;27842;52.272;8.052;2023-06-01T10:34:02;14.80;86.10
40960;DHT22;27842;52.272;8.052;2023-06-01T10:37:14;14.80;85.90
40960;DHT22;27842;52.272;8.052;2023-06-01T10:39:24;14.90;85.80
40960;DHT22;27842;52.272;8.052;2023-06-01T10:41:50;14.90;85.50
40960;DHT22;27842;52.272;8.052;2023-06-01T10:47:00;14.90;86.60
40960;DHT22;27842;52.272;8.052;2023-06-01T10:49:35;14.90;85.70
40960;DHT22;27842;52.272;8.052;2023-06-01T10:52:44;15.00;85.50
40960;DHT22;27842;52.272;8.052;2023-06-01T10:57:36;15.10;85.30
40960;DHT22;27842;52.272;8.052;2023-06-01T11:02:55;15.10;85.40
40960;DHT22;27842;52.272;8.052;2023-06-01T11:05:37;15.30;85.10
40960;DHT22;27842;52.272;8.052;2023-06-01T11:10:58;15.30;89.50
40960;DHT22;27842;52.272;8.052;2023-06-01T11:13:28;15.30;85.10
40960;DHT22;27842;52.272;8.052;2023-06-01T11:18:52;15.40;85.80
40960;DHT22;27842;52.272;8.052;2023-06-01T11:23:59;15.30;84.90
40960;DHT22;27842;52.272;8.052;2023-06-01T11:26:29;15.40;85.00
40960;DHT22;27842;52.272;8.052;2023-06-01T11:31:33;15.40;85.10
40960;DHT22;27842;52.272;8.052;2023-06-01T11:33:59;15.40;86.00
40960;DHT22;27842;52.272;8.052;2023-06-01T11:36:25;15.40;85.90
40960;DHT22;27842;52.272;8.052;2023-06-01T11:38:52;15.40;85.50
40960;DHT22;27842;52.272;8.052;2023-06-01T11:41:21;15.40;85.50
40960;DHT22;27842;52.272;8.052;2023-06-01T11:43:57;15.40;85.50
40960;DHT22;27842;52.272;8.052;2023-06-01T11:46:23;15.40;85.70
40960;DHT22;27842;52.272;8.052;2023-06-01T11:49:10;15.40;85.60
40960;DHT22;27842;52.272;8.052;2023-06-01T11:51:38;15.40;87.20
40960;DHT22;27842;52.272;8.052;2023-06-01T11:54:04;15.40;85.40
40960;DHT22;27842;52.272;8.052;2023-06-01T11:56:30;15.50;85.70
40960;DHT22;27842;52.272;8.052;2023-06-01T11:58:57;15.50;87.20
40960;DHT22;27842;52.272;8.052;2023-06-01T12:01:22;15.50;85.90
40960;DHT22;27842;52.272;8.052;2023-06-01T12:03:48;15.60;85.10
40960;DHT22;27842;52.272;8.052;2023-06-01T12:06:20;15.60;87.70
40960;DHT22;27842;52.272;8.052;2023-06-01T12:08:47;15.70;85.10
40960;DHT22;27842;52.272;8.052;2023-06-01T12:11:12;15.70;85.50
40960;DHT22;27842;52.272;8.052;2023-06-01T12:13:39;15.80;84.90
40960;DHT22;27842;52.272;8.052;2023-06-01T12:16:05;15.80;85.40
40960;DHT22;27842;52.272;8.052;2023-06-01T12:18:30;15.80;84.80
40960;DHT22;27842;52.272;8.052;2023-06-01T12:20:56;15.80;84.80
40960;DHT22;27842;52.272;8.052;2023-06-01T12:23:21;15.80;84.70
40960;DHT22;27842;52.272;8.052;2023-06-01T12:25:53;15.80;85.20
40960;DHT22;27842;52.272;8.052;2023-06-01T12:28:20;15.90;84.60
40960;DHT22;27842;52.272;8.052;2023-06-01T12:30:47;16.00;84.80
40960;DHT22;27842;52.272;8.052;2023-06-01T12:35:57;15.90;84.90
40960;DHT22;27842;52.272;8.052;2023-06-01T12:38:23;15.90;85.90
40960;DHT22;27842;52.272;8.052;2023-06-01T12:41:04;15.80;85.20
40960;DHT22;27842;52.272;8.052;2023-06-01T12:43:30;15.80;85.80
40960;DHT22;27842;52.272;8.052;2023-06-01T12:45:56;15.80;85.70
40960;DHT22;27842;52.272;8.052;2023-06-01T12:48:35;15.80;85.70
40960;DHT22;27842;52.272;8.052;2023-06-01T12:51:03;15.80;85.70
40960;DHT22;27842;52.272;8.052;2023-06-01T12:53:29;15.90;85.60
40960;DHT22;27842;52.272;8.052;2023-06-01T12:55:54;15.90;85.70
40960;DHT22;27842;52.272;8.052;2023-06-01T12:58:20;15.80;86.00
40960;DHT22;27842;52.272;8.052;2023-06-01T13:00:46;15.80;85.90
40960;DHT22;27842;52.272;8.052;2023-06-01T13:03:11;15.80;87.80
40960;DHT22;27842;52.272;8.052;2023-06-01T13:05:37;15.80;85.90
40960;DHT22;27842;52.272;8.052;2023-06-01T13:08:02;15.80;89.30
40960;DHT22;27842;52.272;8.052;2023-06-01T13:10:28;15.70;86.00
40960;DHT22;27842;52.272;8.052;2023-06-01T13:12:54;15.70;86.40
40960;DHT22;27842;52.272;8.052;2023-06-01T13:15:21;15.70;86.00
40960;DHT22;27842;52.272;8.052;2023-06-01T13:17:46;15.70;86.20
40960;DHT22;27842;52.272;8.052;2023-06-01T13:20:15;15.80;85.80
40960;DHT22;27842;52.272;8.052;2023-06-01T13:22:42;15.80;85.90
40960;DHT22;27842;52.272;8.052;2023-06-01T13:25:08;15.80;86.50
40960;DHT22;27842;52.272;8.052;2023-06-01T13:27:34;15.80;85.50
40960;DHT22;27842;52.272;8.052;2023-06-01T13:29:59;15.90;85.60
40960;DHT22;27842;52.272;8.052;2023-06-01T13:32:26;15.90;85.50
40960;DHT22;27842;52.272;8.052;2023-06-01T13:34:52;15.80;85.80
40960;DHT22;27842;52.272;8.052;2023-06-01T13:37:18;15.80;85.80
40960;DHT22;27842;52.272;8.052;2023-06-01T13:39:43;15.80;86.10
40960;DHT22;27842;52.272;8.052;2023-06-01T13:42:09;15.80;86.30
40960;DHT22;27842;52.272;8.052;2023-06-01T13:44:34;15.70;86.10
40960;DHT22;27842;52.272;8.052;2023-06-01T13:47:00;15.70;86.10
40960;DHT22;27842;52.272;8.052;2023-06-01T13:49:25;15.70;86.30
40960;DHT22;27842;52.272;8.052;2023-06-01T13:51:52;15.70;86.80
40960;DHT22;27842;52.272;8.052;2023-06-01T13:54:18;15.70;86.30
40960;DHT22;27842;52.272;8.052;2023-06-01T13:56:43;15.60;86.80
40960;DHT22;27842;52.272;8.052;2023-06-01T13:59:09;15.60;87.00
40960;DHT22;27842;52.272;8.052;2023-06-01T14:01:35;15.60;89.50
40960;DHT22;27842;52.272;8.052;2023-06-01T14:04:01;15.60;87.30
40960;DHT22;27842;52.272;8.052;2023-06-01T14:06:26;15.60;88.00
40960;DHT22;27842;52.272;8.052;2023-06-01T14:08:52;15.50;86.50
40960;DHT22;27842;52.272;8.052;2023-06-01T14:11:17;15.50;87.70
40960;DHT22;27842;52.272;8.052;2023-06-01T14:13:42;15.50;86.60
40960;DHT22;27842;52.272;8.052;2023-06-01T14:16:08;15.50;87.40
40960;DHT22;27842;52.272;8.052;2023-06-01T14:18:33;15.50;86.80
40960;DHT22;27842;52.272;8.052;2023-06-01T14:20:59;15.60;86.60
40960;DHT22;27842;52.272;8.052;2023-06-01T14:23:25;15.60;86.30
40960;DHT22;27842;52.272;8.052;2023-06-01T14:25:50;15.70;86.30
40960;DHT22;27842;52.272;8.052;2023-06-01T14:28:16;15.70;86.10
40960;DHT22;27842;52.272;8.052;2023-06-01T14:30:41;15.80;86.50
40960;DHT22;27842;52.272;8.052;2023-06-01T14:33:07;15.80;85.90
40960;DHT22;27842;52.272;8.052;2023-06-01T14:35:33;15.90;85.70
40960;DHT22;27842;52.272;8.052;2023-06-01T14:37:58;15.90;85.40
40960;DHT22;27842;52.272;8.052;2023-06-01T14:40:24;15.90;85.30
40960;DHT22;27842;52.272;8.052;2023-06-01T14:42:50;15.90;85.40
40960;DHT22;27842;52.272;8.052;2023-06-01T14:45:15;16.00;85.20
40960;DHT22;27842;52.272;8.052;2023-06-01T14:47:41;16.00;85.20
40960;DHT22;27842;52.272;8.052;2023-06-01T14:50:07;16.00;85.00
40960;DHT22;27842;52.272;8.052;2023-06-01T14:52:36;16.00;85.50
40960;DHT22;27842;52.272;8.052;2023-06-01T14:55:01;16.20;84.60
40960;DHT22;27842;52.272;8.052;2023-06-01T14:57:27;16.20;84.60
40960;DHT22;27842;52.272;8.052;2023-06-01T14:59:52;16.30;84.30
40960;DHT22;27842;52.272;8.052;2023-06-01T15:02:18;16.30;84.30
40960;DHT22;27842;52.272;8.052;2023-06-01T15:04:44;16.40;83.90
40960;DHT22;27842;52.272;8.052;2023-06-01T15:07:10;16.40;83.80
40960;DHT22;27842;52.272;8.052;2023-06-01T15:09:35;16.50;83.70
40960;DHT22;27842;52.272;8.052;2023-06-01T15:12:01;16.50;83.40
40960;DHT22;27842;52.272;8.052;2023-06-01T15:14:27;16.50;83.30
40960;DHT22;27842;52.272;8.052;2023-06-01T15:16:52;16.50;83.10
40960;DHT22;27842;52.272;8.052;2023-06-01T15:19:18;16.50;83.20
40960;DHT22;27842;52.272;8.052;2023-06-01T15:21:43;16.50;83.20
40960;DHT22;27842;52.272;8.052;2023-06-01T15:24:09;16.60;83.30
40960;DHT22;27842;52.272;8.052;2023-06-01T15:26:34;16.70;83.00
40960;DHT22;27842;52.272;8.052;2023-06-01T15:29:00;16.70;82.90
40960;DHT22;27842;52.272;8.052;2023-06-01T15:31:25;16.80;82.70
40960;DHT22;27842;52.272;8.052;2023-06-01T15:33:51;16.80;82.30
40960;DHT22;27842;52.272;8.052;2023-06-01T15:36:16;16.90;81.90
40960;DHT22;27842;52.272;8.052;2023-06-01T15:38:42;16.90;82.00
40960;DHT22;27842;52.272;8.052;2023-06-01T15:41:07;16.90;82.10
40960;DHT22;27842;52.272;8.052;2023-06-01T15:43:36;16.90;82.10
40960;DHT22;27842;52.272;8.052;2023-06-01T15:46:02;16.90;81.90
40960;DHT22;27842;52.272;8.052;2023-06-01T15:48:27;16.90;81.90
40960;DHT22;27842;52.272;8.052;2023-06-01T15:50:53;16.90;81.90
40960;DHT22;27842;52.272;8.052;2023-06-01T15:53:18;16.90;82.00
40960;DHT22;27842;52.272;8.052;2023-06-01T15:55:44;16.80;81.70
40960;DHT22;27842;52.272;8.052;2023-06-01T15:58:11;16.80;81.90
40960;DHT22;27842;52.272;8.052;2023-06-01T16:00:36;16.80;82.10
40960;DHT22;27842;52.272;8.052;2023-06-01T16:03:02;16.80;82.10